createdAt,value
2022-07-29T00:02:23.298Z,14.88
2022-07-29T00:04:50.359Z,14.60
2022-07-29T00:07:18.995Z,14.78
2022-07-29T00:09:52.043Z,15.06
2022-07-29T00:12:21.479Z,14.98
2022-07-29T00:14:52.684Z,14.93
2022-07-29T00:17:19.469Z,14.74
2022-07-29T00:19:46.129Z,14.53
2022-07-29T00:22:12.852Z,14.93
2022-07-29T00:24:39.481Z,14.74
2022-07-29T00:27:09.072Z,14.78
2022-07-29T00:29:35.864Z,14.73
2022-07-29T00:32:03.644Z,14.82
2022-07-29T00:34:48.932Z,14.54
2022-07-29T00:37:15.634Z,14.74
2022-07-29T00:39:42.602Z,14.64
2022-07-29T00:42:09.281Z,14.62
2022-07-29T00:44:39.651Z,14.59
2022-07-29T00:47:08.481Z,14.42
2022-07-29T00:49:35.634Z,14.41
2022-07-29T00:52:03.420Z,14.38
2022-07-29T00:54:30.300Z,14.31
2022-07-29T00:56:58.971Z,14.32
2022-07-29T00:59:26.631Z,14.46
2022-07-29T01:02:02.110Z,14.23
2022-07-29T01:04:30.906Z,14.35
2022-07-29T01:06:57.661Z,14.27
2022-07-29T01:09:42.849Z,14.32
2022-07-29T01:12:11.582Z,14.39
2022-07-29T01:14:41.025Z,14.41
2022-07-29T01:17:18.825Z,14.32
2022-07-29T01:20:07.733Z,14.20
2022-07-29T01:22:58.077Z,14.28
2022-07-29T01:25:39.915Z,14.18
2022-07-29T01:28:18.683Z,14.23
2022-07-29T01:30:46.633Z,14.13
2022-07-29T01:33:36.379Z,14.05
2022-07-29T01:36:09.098Z,14.21
2022-07-29T01:38:37.041Z,14.00
2022-07-29T01:41:06.936Z,14.02
2022-07-29T01:43:42.700Z,14.10
2022-07-29T01:46:15.557Z,14.18
2022-07-29T01:48:47.066Z,13.93
2022-07-29T01:51:21.908Z,13.92
2022-07-29T01:53:51.613Z,14.03
2022-07-29T01:56:26.937Z,13.91
2022-07-29T01:59:01.205Z,13.70
2022-07-29T02:01:36.026Z,13.80
2022-07-29T02:04:07.794Z,13.74
2022-07-29T02:06:37.008Z,13.88
2022-07-29T02:09:05.461Z,13.90
2022-07-29T02:11:36.708Z,13.85
2022-07-29T02:14:05.095Z,13.91
2022-07-29T02:16:33.609Z,13.77
2022-07-29T02:19:02.132Z,13.73
2022-07-29T02:21:29.325Z,13.66
2022-07-29T02:23:57.150Z,13.97
2022-07-29T02:26:27.722Z,13.85
2022-07-29T02:28:56.157Z,13.74
2022-07-29T02:31:24.298Z,13.92
2022-07-29T02:33:51.537Z,13.55
2022-07-29T02:36:19.020Z,13.81
2022-07-29T02:38:52.254Z,13.89
2022-07-29T02:41:21.176Z,13.53
2022-07-29T02:43:49.094Z,13.74
2022-07-29T02:46:28.754Z,13.80
2022-07-29T02:49:03.185Z,13.70
2022-07-29T02:51:44.007Z,13.71
2022-07-29T02:54:12.913Z,13.70
2022-07-29T02:56:56.669Z,13.61
2022-07-29T02:59:29.766Z,13.94
2022-07-29T03:01:58.917Z,13.88
2022-07-29T03:04:29.648Z,14.02
2022-07-29T03:13:52.529Z,14.05
2022-07-29T03:16:20.190Z,13.90
2022-07-29T03:18:47.805Z,13.98
2022-07-29T03:21:18.370Z,13.86
2022-07-29T03:23:49.922Z,13.87
2022-07-29T03:26:16.524Z,13.81
2022-07-29T03:28:43.057Z,13.79
2022-07-29T03:31:09.579Z,13.83
2022-07-29T03:33:36.110Z,13.68
2022-07-29T03:36:03.511Z,13.90
2022-07-29T03:38:31.616Z,14.11
2022-07-29T03:41:02.551Z,14.16
2022-07-29T03:43:31.905Z,14.20
2022-07-29T03:46:02.092Z,14.26
2022-07-29T03:48:30.737Z,14.22
2022-07-29T03:58:13.779Z,14.30
2022-07-29T04:00:51.030Z,14.40
2022-07-29T04:03:20.144Z,14.48
2022-07-29T04:05:58.604Z,14.11
2022-07-29T04:08:28.414Z,14.11
2022-07-29T04:10:56.049Z,13.99
2022-07-29T04:13:29.211Z,13.98
2022-07-29T04:15:58.749Z,13.83
2022-07-29T04:18:28.774Z,14.15
2022-07-29T04:21:02.062Z,14.12
2022-07-29T04:23:33.575Z,14.11
2022-07-29T04:26:01.431Z,13.82
2022-07-29T04:28:28.070Z,13.87
2022-07-29T04:30:54.679Z,14.02
2022-07-29T04:33:21.299Z,13.83
2022-07-29T04:37:14.725Z,14.00
2022-07-29T04:39:43.488Z,14.26
2022-07-29T04:42:15.914Z,13.97
2022-07-29T04:51:57.679Z,13.92
2022-07-29T04:54:30.563Z,14.18
2022-07-29T04:57:05.496Z,14.09
2022-07-29T04:59:32.285Z,14.23
2022-07-29T05:01:58.939Z,14.38
2022-07-29T05:04:25.923Z,14.44
2022-07-29T05:07:04.579Z,14.74
2022-07-29T05:09:35.696Z,14.68
2022-07-29T05:12:14.301Z,14.85
2022-07-29T05:14:50.964Z,14.86
2022-07-29T05:17:22.944Z,15.21
2022-07-29T05:20:03.779Z,15.17
2022-07-29T05:22:33.236Z,15.55
2022-07-29T05:25:43.070Z,15.71
2022-07-29T05:28:32.647Z,15.73
2022-07-29T05:31:16.547Z,15.52
2022-07-29T05:34:17.352Z,15.53
2022-07-29T05:36:52.507Z,15.62
2022-07-29T05:39:48.494Z,15.70
2022-07-29T05:42:15.938Z,15.52
2022-07-29T05:45:01.007Z,15.52
2022-07-29T05:47:27.698Z,15.69
2022-07-29T05:49:55.097Z,15.84
2022-07-29T05:52:22.188Z,15.94
2022-07-29T05:54:48.822Z,15.92
2022-07-29T05:57:22.964Z,15.89
2022-07-29T05:59:50.221Z,16.10
2022-07-29T06:02:16.879Z,15.95
2022-07-29T06:04:43.605Z,15.97
2022-07-29T06:07:10.166Z,16.22
2022-07-29T06:09:44.148Z,16.06
2022-07-29T06:12:11.002Z,16.40
2022-07-29T06:14:39.036Z,16.33
2022-07-29T06:17:06.394Z,16.49
2022-07-29T06:19:34.835Z,16.59
2022-07-29T06:22:01.266Z,16.72
2022-07-29T06:24:28.172Z,16.88
2022-07-29T06:26:54.696Z,16.75
2022-07-29T06:29:21.236Z,16.71
2022-07-29T06:31:47.764Z,16.68
2022-07-29T06:34:14.676Z,16.86
2022-07-29T06:36:41.897Z,16.85
2022-07-29T06:39:08.733Z,16.96
2022-07-29T06:41:35.091Z,17.08
2022-07-29T06:44:01.468Z,17.10
2022-07-29T06:46:28.628Z,17.14
2022-07-29T06:48:55.259Z,17.20
2022-07-29T06:51:23.244Z,16.99
2022-07-29T06:54:00.494Z,17.47
2022-07-29T06:56:39.315Z,17.03
2022-07-29T06:59:06.872Z,17.24
2022-07-29T07:01:33.529Z,17.55
2022-07-29T07:03:59.917Z,17.52
2022-07-29T07:06:26.288Z,17.44
2022-07-29T07:08:52.718Z,17.88
2022-07-29T07:11:19.117Z,17.56
2022-07-29T07:13:45.501Z,17.76
2022-07-29T07:16:11.972Z,17.82
2022-07-29T07:18:38.380Z,17.89
2022-07-29T07:21:06.093Z,18.19
2022-07-29T07:23:32.546Z,18.27
2022-07-29T07:25:59.075Z,18.36
2022-07-29T07:28:25.714Z,18.79
2022-07-29T07:30:52.758Z,18.77
2022-07-29T07:33:19.636Z,18.55
2022-07-29T07:35:46.255Z,18.60
2022-07-29T07:38:12.693Z,19.19
2022-07-29T07:40:39.397Z,19.25
2022-07-29T07:43:05.789Z,19.81
2022-07-29T07:45:34.899Z,20.00
2022-07-29T07:48:01.371Z,20.52
2022-07-29T07:50:27.945Z,21.42
2022-07-29T07:52:58.441Z,21.83
2022-07-29T07:55:24.889Z,22.92
2022-07-29T07:57:51.321Z,23.90
2022-07-29T08:00:23.839Z,23.94
2022-07-29T08:03:22.984Z,23.64
2022-07-29T08:05:51.896Z,24.09
2022-07-29T08:08:18.924Z,23.65
2022-07-29T08:17:35.652Z,22.59
2022-07-29T08:20:10.900Z,22.92
2022-07-29T08:22:39.807Z,22.54
2022-07-29T08:25:09.955Z,22.55
2022-07-29T08:27:44.364Z,22.09
2022-07-29T08:30:29.514Z,22.22
2022-07-29T08:36:42.809Z,22.72
2022-07-29T08:42:39.497Z,22.51
2022-07-29T08:52:06.865Z,23.58
2022-07-29T08:57:38.078Z,23.38
2022-07-29T09:00:08.138Z,23.44
2022-07-29T09:37:40.916Z,24.34
2022-07-29T09:58:35.950Z,24.20
2022-07-29T10:40:57.300Z,24.13
2022-07-29T10:50:39.667Z,23.91
2022-07-29T11:22:04.530Z,25.07
2022-07-29T11:24:34.969Z,25.49
2022-07-29T11:27:20.029Z,25.42
2022-07-29T11:33:56.233Z,24.36
2022-07-29T11:36:32.980Z,24.74
2022-07-29T11:42:44.590Z,25.47
2022-07-29T11:45:43.739Z,25.87
2022-07-29T11:48:28.590Z,25.91
2022-07-29T11:51:32.855Z,26.09
2022-07-29T11:54:05.394Z,26.00
2022-07-29T11:56:33.771Z,26.16
2022-07-29T11:59:11.132Z,26.40
2022-07-29T12:02:02.449Z,26.58
2022-07-29T12:04:55.698Z,26.27
2022-07-29T12:07:03.208Z,25.02
2022-07-29T12:07:35.318Z,26.13
2022-07-29T12:10:03.191Z,26.08
2022-07-29T12:12:30.101Z,26.14
2022-07-29T12:27:02.333Z,25.99
2022-07-29T12:35:40.414Z,26.17
2022-07-29T12:39:07.446Z,26.39
2022-07-29T14:30:26.363Z,27.56
2022-07-29T14:35:18.183Z,26.90
2022-07-29T14:40:37.351Z,27.63
2022-07-29T14:50:55.208Z,27.64
2022-07-29T14:54:08.610Z,27.21
2022-07-29T23:51:44.511Z,18.56
2022-07-29T23:54:16.600Z,18.50
